Hagatna, Guam
Current Conditions -  °F | °C
As of 5:54 AM on Wednesday 22 Oct 2014 (Local Time) from PGUM Reporting Station
Few Clouds Few Clouds  
Wind Chill: 77°   Ceiling: Unl
Heat Index: 78°   Visibility: 10mi
Dew Point: 73°   Wind: 0mph
Humidity: 88%   Direction: NA
Pressure: 29.82"   Gusts: NA
Location:  13.48°N, 144.8°E
Report Text: PGUM 211954Z 00000KT 10SM FEW020 25/23 A2982 RMK AO2 SLP088 T02500228
Loading
Personal Weather Stations






























Interactive Weather Map
Tropical Storm Tracking
New forecast layout! Learn more

10-Day Weather Forecast

Advertisements
Track Severe Weather on mobile